sensor_id;sensor_type;location;lat;lon;timestamp;pressure;altitude;pressure_sealevel;temperature;humidity
50774;BME280;36745;48.544;8.918;2023-10-09T00:02:12;98031.78;;;9.97;83.17
50774;BME280;36745;48.544;8.918;2023-10-09T00:05:33;98033.66;;;10.04;82.14
50774;BME280;36745;48.544;8.918;2023-10-09T00:09:13;98029.94;;;9.91;83.54
50774;BME280;36745;48.544;8.918;2023-10-09T00:12:50;98025.31;;;9.84;83.47
50774;BME280;36745;48.544;8.918;2023-10-09T00:16:10;98024.53;;;9.84;83.21
50774;BME280;36745;48.544;8.918;2023-10-09T00:19:33;98027.28;;;9.84;83.19
50774;BME280;36745;48.544;8.918;2023-10-09T00:22:53;98023.34;;;9.85;82.60
50774;BME280;36745;48.544;8.918;2023-10-09T00:26:16;98022.31;;;9.75;83.37
50774;BME280;36745;48.544;8.918;2023-10-09T00:29:36;98012.72;;;9.83;82.54
50774;BME280;36745;48.544;8.918;2023-10-09T00:33:01;98016.81;;;9.75;82.52
50774;BME280;36745;48.544;8.918;2023-10-09T00:36:23;98015.78;;;9.65;83.92
50774;BME280;36745;48.544;8.918;2023-10-09T00:39:49;98012.91;;;9.73;82.76
50774;BME280;36745;48.544;8.918;2023-10-09T00:43:14;98006.91;;;9.54;83.81
50774;BME280;36745;48.544;8.918;2023-10-09T00:46:34;98000.56;;;9.57;84.00
50774;BME280;36745;48.544;8.918;2023-10-09T00:49:57;97995.63;;;9.45;84.36
50774;BME280;36745;48.544;8.918;2023-10-09T00:53:22;97997.97;;;9.47;84.72
50774;BME280;36745;48.544;8.918;2023-10-09T00:56:50;97988.91;;;9.50;84.21
50774;BME280;36745;48.544;8.918;2023-10-09T01:00:18;97993.03;;;9.35;85.26
50774;BME280;36745;48.544;8.918;2023-10-09T01:04:05;97993.09;;;9.31;85.40
50774;BME280;36745;48.544;8.918;2023-10-09T01:07:46;97982.09;;;9.31;85.81
50774;BME280;36745;48.544;8.918;2023-10-09T01:11:10;97983.69;;;9.28;85.05
50774;BME280;36745;48.544;8.918;2023-10-09T01:14:37;97979.03;;;9.25;86.12
50774;BME280;36745;48.544;8.918;2023-10-09T01:17:57;97980.66;;;9.23;85.96
50774;BME280;36745;48.544;8.918;2023-10-09T01:21:19;97980.03;;;9.12;86.50
50774;BME280;36745;48.544;8.918;2023-10-09T01:24:45;97974.56;;;9.08;86.41
50774;BME280;36745;48.544;8.918;2023-10-09T01:28:09;97969.44;;;9.10;86.70
50774;BME280;36745;48.544;8.918;2023-10-09T01:31:29;97966.53;;;9.21;86.07
50774;BME280;36745;48.544;8.918;2023-10-09T01:34:53;97970.47;;;9.20;86.56
50774;BME280;36745;48.544;8.918;2023-10-09T01:38:14;97965.81;;;9.17;86.32
50774;BME280;36745;48.544;8.918;2023-10-09T01:41:34;97962.69;;;9.15;86.31
50774;BME280;36745;48.544;8.918;2023-10-09T01:44:54;97967.94;;;9.06;86.89
50774;BME280;36745;48.544;8.918;2023-10-09T01:48:14;97956.63;;;9.00;87.59
50774;BME280;36745;48.544;8.918;2023-10-09T01:51:43;97954.28;;;8.99;88.24
50774;BME280;36745;48.544;8.918;2023-10-09T01:55:04;97949.63;;;8.96;88.65
50774;BME280;36745;48.544;8.918;2023-10-09T01:58:52;97948.78;;;8.99;88.83
50774;BME280;36745;48.544;8.918;2023-10-09T02:02:16;97945.81;;;9.13;87.06
50774;BME280;36745;48.544;8.918;2023-10-09T02:05:45;97951.69;;;9.15;86.86
50774;BME280;36745;48.544;8.918;2023-10-09T02:09:05;97939.81;;;9.21;86.53
50774;BME280;36745;48.544;8.918;2023-10-09T02:12:25;97935.78;;;9.26;86.65
50774;BME280;36745;48.544;8.918;2023-10-09T02:15:52;97938.13;;;9.27;86.62
50774;BME280;36745;48.544;8.918;2023-10-09T02:19:13;97931.78;;;9.31;87.33
50774;BME280;36745;48.544;8.918;2023-10-09T02:22:51;97933.28;;;9.35;86.39
50774;BME280;36745;48.544;8.918;2023-10-09T02:26:13;97935.94;;;9.42;85.87
50774;BME280;36745;48.544;8.918;2023-10-09T02:29:39;97933.34;;;9.32;87.21
50774;BME280;36745;48.544;8.918;2023-10-09T02:33:01;97940.66;;;9.42;87.04
50774;BME280;36745;48.544;8.918;2023-10-09T02:36:28;97933.91;;;9.46;87.21
50774;BME280;36745;48.544;8.918;2023-10-09T02:39:48;97929.47;;;9.52;86.72
50774;BME280;36745;48.544;8.918;2023-10-09T02:43:08;97928.28;;;9.53;86.57
50774;BME280;36745;48.544;8.918;2023-10-09T02:46:37;97926.72;;;9.52;86.63
50774;BME280;36745;48.544;8.918;2023-10-09T02:49:59;97925.53;;;9.53;87.33
50774;BME280;36745;48.544;8.918;2023-10-09T02:53:27;97925.91;;;9.55;86.79
50774;BME280;36745;48.544;8.918;2023-10-09T02:56:50;97920.25;;;9.62;86.79
50774;BME280;36745;48.544;8.918;2023-10-09T03:00:25;97926.13;;;9.64;87.20
50774;BME280;36745;48.544;8.918;2023-10-09T03:03:50;97917.03;;;9.67;87.19
50774;BME280;36745;48.544;8.918;2023-10-09T03:07:10;97929.53;;;9.72;87.28
50774;BME280;36745;48.544;8.918;2023-10-09T03:10:33;97925.91;;;9.55;89.31
50774;BME280;36745;48.544;8.918;2023-10-09T03:13:53;97919.56;;;9.58;88.60
50774;BME280;36745;48.544;8.918;2023-10-09T03:17:13;97927.41;;;9.60;88.68
50774;BME280;36745;48.544;8.918;2023-10-09T03:20:33;97928.19;;;9.60;88.25
50774;BME280;36745;48.544;8.918;2023-10-09T03:23:53;97909.25;;;9.62;88.00
50774;BME280;36745;48.544;8.918;2023-10-09T03:27:15;97907.94;;;9.71;88.12
50774;BME280;36745;48.544;8.918;2023-10-09T03:30:35;97909.84;;;9.74;88.45
50774;BME280;36745;48.544;8.918;2023-10-09T03:33:56;97909.34;;;9.79;88.04
50774;BME280;36745;48.544;8.918;2023-10-09T03:37:16;97902.84;;;9.69;88.33
50774;BME280;36745;48.544;8.918;2023-10-09T03:40:54;97906.16;;;9.60;89.41
50774;BME280;36745;48.544;8.918;2023-10-09T03:44:14;97912.31;;;9.68;88.91
50774;BME280;36745;48.544;8.918;2023-10-09T03:47:37;97906.75;;;9.72;88.50
50774;BME280;36745;48.544;8.918;2023-10-09T03:50:58;97906.75;;;9.72;88.89
50774;BME280;36745;48.544;8.918;2023-10-09T03:54:40;97919.28;;;9.73;89.13
50774;BME280;36745;48.544;8.918;2023-10-09T03:58:03;97906.59;;;9.79;88.80
50774;BME280;36745;48.544;8.918;2023-10-09T04:01:22;97903.50;;;9.77;88.82
50774;BME280;36745;48.544;8.918;2023-10-09T04:04:47;97905.03;;;9.78;89.05
50774;BME280;36745;48.544;8.918;2023-10-09T04:08:07;97892.63;;;9.69;88.83
50774;BME280;36745;48.544;8.918;2023-10-09T04:11:51;97888.66;;;9.71;89.53
50774;BME280;36745;48.544;8.918;2023-10-09T04:15:36;97900.66;;;9.60;90.08
50774;BME280;36745;48.544;8.918;2023-10-09T04:18:57;97893.59;;;9.59;90.02
50774;BME280;36745;48.544;8.918;2023-10-09T04:22:17;97891.13;;;9.65;89.24
50774;BME280;36745;48.544;8.918;2023-10-09T04:25:46;97897.41;;;9.65;90.04
50774;BME280;36745;48.544;8.918;2023-10-09T04:29:11;97903.94;;;9.52;90.64
50774;BME280;36745;48.544;8.918;2023-10-09T04:32:46;97892.09;;;9.55;90.15
50774;BME280;36745;48.544;8.918;2023-10-09T04:36:09;97895.16;;;9.60;90.41
50774;BME280;36745;48.544;8.918;2023-10-09T04:39:49;97898.72;;;9.57;90.69
50774;BME280;36745;48.544;8.918;2023-10-09T04:43:20;97904.72;;;9.52;90.33
50774;BME280;36745;48.544;8.918;2023-10-09T04:46:40;97899.91;;;9.56;90.16
50774;BME280;36745;48.544;8.918;2023-10-09T04:50:19;97896.81;;;9.54;90.48
50774;BME280;36745;48.544;8.918;2023-10-09T04:53:38;97890.56;;;9.50;90.71
50774;BME280;36745;48.544;8.918;2023-10-09T04:57:14;97901.53;;;9.54;90.78
50774;BME280;36745;48.544;8.918;2023-10-09T05:00:37;97904.72;;;9.52;90.76
50774;BME280;36745;48.544;8.918;2023-10-09T05:03:59;97905.56;;;9.49;90.89
50774;BME280;36745;48.544;8.918;2023-10-09T05:07:23;97903.53;;;9.53;90.66
50774;BME280;36745;48.544;8.918;2023-10-09T05:10:43;97902.91;;;9.42;91.69
50774;BME280;36745;48.544;8.918;2023-10-09T05:14:22;97911.41;;;9.51;91.75
50774;BME280;36745;48.544;8.918;2023-10-09T05:17:58;97920.13;;;9.46;92.28
50774;BME280;36745;48.544;8.918;2023-10-09T05:21:31;97917.94;;;9.38;92.98
50774;BME280;36745;48.544;8.918;2023-10-09T05:24:51;97908.03;;;9.40;93.11
50774;BME280;36745;48.544;8.918;2023-10-09T05:28:14;97912.06;;;9.36;93.67
50774;BME280;36745;48.544;8.918;2023-10-09T05:32:08;97930.06;;;9.40;92.85
50774;BME280;36745;48.544;8.918;2023-10-09T05:35:33;97921.47;;;9.38;93.01
50774;BME280;36745;48.544;8.918;2023-10-09T05:38:59;97929.28;;;9.40;93.43
50774;BME280;36745;48.544;8.918;2023-10-09T05:42:19;97930.31;;;9.49;92.83
50774;BME280;36745;48.544;8.918;2023-10-09T05:45:38;97932.59;;;9.54;92.67
50774;BME280;36745;48.544;8.918;2023-10-09T05:49:17;97933.31;;;9.58;92.46
50774;BME280;36745;48.544;8.918;2023-10-09T05:52:44;97925.44;;;9.60;92.38
50774;BME280;36745;48.544;8.918;2023-10-09T05:56:12;97928.03;;;9.67;91.90
50774;BME280;36745;48.544;8.918;2023-10-09T05:59:50;97928.78;;;9.72;92.14
50774;BME280;36745;48.544;8.918;2023-10-09T06:03:29;97929.47;;;9.76;93.42
50774;BME280;36745;48.544;8.918;2023-10-09T06:07:07;97929.22;;;9.90;93.06
50774;BME280;36745;48.544;8.918;2023-10-09T06:10:33;97934.13;;;10.02;92.94
50774;BME280;36745;48.544;8.918;2023-10-09T06:14:01;97937.00;;;9.95;93.29
50774;BME280;36745;48.544;8.918;2023-10-09T06:17:29;97945.50;;;10.04;92.93
50774;BME280;36745;48.544;8.918;2023-10-09T06:21:02;97954.47;;;10.08;93.19
50774;BME280;36745;48.544;8.918;2023-10-09T06:24:30;97961.00;;;10.18;92.92
50774;BME280;36745;48.544;8.918;2023-10-09T06:27:53;97950.69;;;10.22;93.51
50774;BME280;36745;48.544;8.918;2023-10-09T06:31:13;97957.56;;;10.33;93.08
50774;BME280;36745;48.544;8.918;2023-10-09T06:35:08;97963.28;;;10.42;93.57
50774;BME280;36745;48.544;8.918;2023-10-09T06:38:38;97965.78;;;10.57;94.17
50774;BME280;36745;48.544;8.918;2023-10-09T06:42:20;97965.69;;;10.80;93.75
50774;BME280;36745;48.544;8.918;2023-10-09T06:45:58;97969.84;;;10.88;93.71
50774;BME280;36745;48.544;8.918;2023-10-09T06:49:23;97964.13;;;10.99;92.91
50774;BME280;36745;48.544;8.918;2023-10-09T06:52:48;97962.13;;;10.99;93.19
50774;BME280;36745;48.544;8.918;2023-10-09T06:56:37;97956.66;;;11.15;93.19
50774;BME280;36745;48.544;8.918;2023-10-09T06:59:57;97960.72;;;11.27;93.20
50774;BME280;36745;48.544;8.918;2023-10-09T07:03:55;97961.69;;;11.36;93.46
50774;BME280;36745;48.544;8.918;2023-10-09T07:07:30;97959.28;;;11.55;93.75
50774;BME280;36745;48.544;8.918;2023-10-09T07:10:54;97951.59;;;11.62;94.26
50774;BME280;36745;48.544;8.918;2023-10-09T07:14:34;97961.69;;;11.69;94.51
50774;BME280;36745;48.544;8.918;2023-10-09T07:17:54;97968.13;;;11.82;94.34
50774;BME280;36745;48.544;8.918;2023-10-09T07:21:15;97972.06;;;11.97;93.91
50774;BME280;36745;48.544;8.918;2023-10-09T07:24:37;97962.38;;;12.05;93.97
50774;BME280;36745;48.544;8.918;2023-10-09T07:28:03;97963.75;;;12.13;94.08
50774;BME280;36745;48.544;8.918;2023-10-09T07:31:37;97972.00;;;12.30;94.16
50774;BME280;36745;48.544;8.918;2023-10-09T07:35:05;97965.75;;;12.42;94.25
50774;BME280;36745;48.544;8.918;2023-10-09T07:38:28;97963.47;;;12.53;94.19
50774;BME280;36745;48.544;8.918;2023-10-09T07:41:49;97959.28;;;12.61;94.15
50774;BME280;36745;48.544;8.918;2023-10-09T07:45:27;97963.63;;;12.75;93.77
50774;BME280;36745;48.544;8.918;2023-10-09T07:48:47;97968.19;;;12.81;93.78
50774;BME280;36745;48.544;8.918;2023-10-09T07:52:12;97964.69;;;12.93;93.51
50774;BME280;36745;48.544;8.918;2023-10-09T07:55:32;97972.25;;;13.06;93.58
50774;BME280;36745;48.544;8.918;2023-10-09T07:58:58;97968.06;;;13.14;93.49
50774;BME280;36745;48.544;8.918;2023-10-09T08:02:22;97970.28;;;13.19;93.41
50774;BME280;36745;48.544;8.918;2023-10-09T08:05:51;97973.72;;;13.35;93.90
50774;BME280;36745;48.544;8.918;2023-10-09T08:09:13;97975.59;;;13.51;93.55
50774;BME280;36745;48.544;8.918;2023-10-09T08:12:32;97971.16;;;13.66;93.52
50774;BME280;36745;48.544;8.918;2023-10-09T08:16:04;97969.94;;;13.80;93.07
50774;BME280;36745;48.544;8.918;2023-10-09T08:19:37;97965.25;;;13.90;93.08
50774;BME280;36745;48.544;8.918;2023-10-09T08:23:11;97966.66;;;14.07;92.96
50774;BME280;36745;48.544;8.918;2023-10-09T08:26:41;97959.97;;;14.17;92.77
50774;BME280;36745;48.544;8.918;2023-10-09T08:30:21;97965.91;;;14.28;92.47
50774;BME280;36745;48.544;8.918;2023-10-09T08:33:41;97969.91;;;14.40;92.12
50774;BME280;36745;48.544;8.918;2023-10-09T08:37:01;97962.75;;;14.51;91.94
50774;BME280;36745;48.544;8.918;2023-10-09T08:40:21;97968.56;;;14.66;91.46
50774;BME280;36745;48.544;8.918;2023-10-09T08:43:42;97953.97;;;14.75;91.27
50774;BME280;36745;48.544;8.918;2023-10-09T08:47:06;97952.28;;;14.99;91.61
50774;BME280;36745;48.544;8.918;2023-10-09T08:50:26;97954.38;;;15.17;91.25
50774;BME280;36745;48.544;8.918;2023-10-09T08:53:47;97958.25;;;15.28;90.63
50774;BME280;36745;48.544;8.918;2023-10-09T08:57:07;97965.09;;;15.36;90.44
50774;BME280;36745;48.544;8.918;2023-10-09T09:00:29;97964.84;;;15.43;90.44
50774;BME280;36745;48.544;8.918;2023-10-09T09:03:53;97967.06;;;15.58;90.16
50774;BME280;36745;48.544;8.918;2023-10-09T09:07:26;97973.59;;;15.73;90.20
50774;BME280;36745;48.544;8.918;2023-10-09T09:10:55;97966.66;;;15.77;88.96
50774;BME280;36745;48.544;8.918;2023-10-09T09:14:17;97964.09;;;15.92;89.47
50774;BME280;36745;48.544;8.918;2023-10-09T09:17:41;97959.16;;;16.05;88.97
50774;BME280;36745;48.544;8.918;2023-10-09T09:21:01;97962.88;;;16.20;89.15
50774;BME280;36745;48.544;8.918;2023-10-09T09:24:21;97965.50;;;16.42;89.49
50774;BME280;36745;48.544;8.918;2023-10-09T09:27:45;97968.16;;;16.64;89.50
50774;BME280;36745;48.544;8.918;2023-10-09T09:31:15;97971.84;;;16.79;88.88
50774;BME280;36745;48.544;8.918;2023-10-09T09:34:48;97976.03;;;16.93;89.09
50774;BME280;36745;48.544;8.918;2023-10-09T09:38:14;97971.53;;;17.04;87.79
50774;BME280;36745;48.544;8.918;2023-10-09T09:41:37;97971.94;;;17.12;88.07
50774;BME280;36745;48.544;8.918;2023-10-09T09:45:00;97987.69;;;17.33;88.42
50774;BME280;36745;48.544;8.918;2023-10-09T09:48:21;97983.16;;;17.45;86.67
50774;BME280;36745;48.544;8.918;2023-10-09T09:51:43;97984.03;;;17.60;87.54
50774;BME280;36745;48.544;8.918;2023-10-09T09:55:10;97983.06;;;17.72;85.26
50774;BME280;36745;48.544;8.918;2023-10-09T09:58:43;97981.56;;;17.95;87.30
50774;BME280;36745;48.544;8.918;2023-10-09T10:02:04;97982.63;;;18.21;87.17
50774;BME280;36745;48.544;8.918;2023-10-09T10:05:28;97980.78;;;18.42;86.70
50774;BME280;36745;48.544;8.918;2023-10-09T10:08:49;97975.28;;;18.57;85.80
50774;BME280;36745;48.544;8.918;2023-10-09T10:12:11;97975.41;;;18.77;85.32
50774;BME280;36745;48.544;8.918;2023-10-09T10:19:22;97978.13;;;19.15;83.65
50774;BME280;36745;48.544;8.918;2023-10-09T10:22:41;97981.69;;;19.31;83.64
50774;BME280;36745;48.544;8.918;2023-10-09T10:26:20;97975.72;;;19.52;83.21
50774;BME280;36745;48.544;8.918;2023-10-09T10:29:45;97972.19;;;19.72;82.84
50774;BME280;36745;48.544;8.918;2023-10-09T10:33:05;97968.69;;;19.92;82.38
50774;BME280;36745;48.544;8.918;2023-10-09T10:36:35;97956.44;;;20.09;81.37
50774;BME280;36745;48.544;8.918;2023-10-09T10:39:55;97958.91;;;20.22;79.17
50774;BME280;36745;48.544;8.918;2023-10-09T10:43:19;97962.72;;;20.39;79.79
50774;BME280;36745;48.544;8.918;2023-10-09T10:47:08;97946.78;;;20.71;78.02
50774;BME280;36745;48.544;8.918;2023-10-09T10:50:41;97944.63;;;20.86;76.49
50774;BME280;36745;48.544;8.918;2023-10-09T10:54:06;97937.84;;;20.93;75.38
50774;BME280;36745;48.544;8.918;2023-10-09T10:57:45;97937.47;;;21.11;73.98
50774;BME280;36745;48.544;8.918;2023-10-09T11:01:20;97940.34;;;21.17;74.42
50774;BME280;36745;48.544;8.918;2023-10-09T11:04:45;97939.88;;;21.18;69.62
50774;BME280;36745;48.544;8.918;2023-10-09T11:08:13;97935.25;;;21.15;71.82
50774;BME280;36745;48.544;8.918;2023-10-09T11:11:32;97936.22;;;21.12;69.86
50774;BME280;36745;48.544;8.918;2023-10-09T11:15:00;97940.69;;;21.24;69.14
50774;BME280;36745;48.544;8.918;2023-10-09T11:18:28;97936.88;;;21.27;60.91
50774;BME280;36745;48.544;8.918;2023-10-09T11:21:50;97942.13;;;21.46;66.05
50774;BME280;36745;48.544;8.918;2023-10-09T11:25:17;97935.47;;;21.80;65.27
50774;BME280;36745;48.544;8.918;2023-10-09T11:28:38;97943.34;;;21.76;61.12
50774;BME280;36745;48.544;8.918;2023-10-09T11:32:21;97943.66;;;21.84;62.40
50774;BME280;36745;48.544;8.918;2023-10-09T11:35:55;97935.69;;;21.76;58.22
50774;BME280;36745;48.544;8.918;2023-10-09T11:39:24;97942.09;;;21.77;60.94
50774;BME280;36745;48.544;8.918;2023-10-09T11:42:51;97931.00;;;21.99;62.93
50774;BME280;36745;48.544;8.918;2023-10-09T11:46:16;97931.78;;;22.00;61.80
50774;BME280;36745;48.544;8.918;2023-10-09T11:49:57;97934.22;;;21.87;61.61
50774;BME280;36745;48.544;8.918;2023-10-09T11:53:19;97928.78;;;21.72;60.42
50774;BME280;36745;48.544;8.918;2023-10-09T11:56:42;97929.53;;;21.67;60.92
50774;BME280;36745;48.544;8.918;2023-10-09T12:00:05;97927.16;;;21.60;61.75
50774;BME280;36745;48.544;8.918;2023-10-09T12:03:48;97914.16;;;21.57;61.39
50774;BME280;36745;48.544;8.918;2023-10-09T12:07:11;97910.81;;;21.53;61.42
50774;BME280;36745;48.544;8.918;2023-10-09T12:10:31;97905.25;;;21.58;61.65
50774;BME280;36745;48.544;8.918;2023-10-09T12:13:53;97897.59;;;21.59;61.24
50774;BME280;36745;48.544;8.918;2023-10-09T12:17:15;97905.97;;;21.53;61.80
50774;BME280;36745;48.544;8.918;2023-10-09T12:20:35;97892.69;;;21.48;61.02
50774;BME280;36745;48.544;8.918;2023-10-09T12:23:55;97888.53;;;21.44;61.89
50774;BME280;36745;48.544;8.918;2023-10-09T12:27:17;97877.38;;;21.49;62.31
50774;BME280;36745;48.544;8.918;2023-10-09T12:30:40;97882.84;;;21.64;62.69
50774;BME280;36745;48.544;8.918;2023-10-09T12:34:00;97866.31;;;21.77;62.51
50774;BME280;36745;48.544;8.918;2023-10-09T12:37:20;97866.88;;;21.92;62.94
50774;BME280;36745;48.544;8.918;2023-10-09T12:40:40;97866.22;;;22.08;62.92
50774;BME280;36745;48.544;8.918;2023-10-09T12:44:00;97850.69;;;22.24;62.85
50774;BME280;36745;48.544;8.918;2023-10-09T12:47:21;97850.47;;;22.28;61.56
50774;BME280;36745;48.544;8.918;2023-10-09T12:50:41;97853.78;;;22.26;60.63
50774;BME280;36745;48.544;8.918;2023-10-09T12:54:01;97847.69;;;22.39;60.99
50774;BME280;36745;48.544;8.918;2023-10-09T12:57:21;97849.22;;;22.56;60.23
50774;BME280;36745;48.544;8.918;2023-10-09T13:00:42;97847.75;;;22.67;59.49
50774;BME280;36745;48.544;8.918;2023-10-09T13:04:12;97846.44;;;22.51;54.87
50774;BME280;36745;48.544;8.918;2023-10-09T13:07:34;97840.25;;;22.36;55.69
50774;BME280;36745;48.544;8.918;2023-10-09T13:10:54;97838.00;;;22.40;56.22
50774;BME280;36745;48.544;8.918;2023-10-09T13:14:20;97834.19;;;22.54;55.02
50774;BME280;36745;48.544;8.918;2023-10-09T13:17:42;97845.69;;;22.56;53.44
50774;BME280;36745;48.544;8.918;2023-10-09T13:21:02;97842.34;;;22.63;52.96
50774;BME280;36745;48.544;8.918;2023-10-09T13:24:22;97840.56;;;22.54;50.19
50774;BME280;36745;48.544;8.918;2023-10-09T13:27:49;97842.09;;;22.55;49.52
50774;BME280;36745;48.544;8.918;2023-10-09T13:31:13;97839.78;;;22.43;48.68
50774;BME280;36745;48.544;8.918;2023-10-09T13:34:36;97839.03;;;22.53;47.96
50774;BME280;36745;48.544;8.918;2023-10-09T13:37:56;97838.28;;;22.64;48.25
50774;BME280;36745;48.544;8.918;2023-10-09T13:41:16;97841.84;;;22.70;46.19
50774;BME280;36745;48.544;8.918;2023-10-09T13:44:37;97843.66;;;22.73;47.61
50774;BME280;36745;48.544;8.918;2023-10-09T13:48:01;97853.09;;;22.70;45.83
50774;BME280;36745;48.544;8.918;2023-10-09T13:51:22;97860.28;;;22.71;47.38
50774;BME280;36745;48.544;8.918;2023-10-09T13:55:21;97860.81;;;22.75;46.87
50774;BME280;36745;48.544;8.918;2023-10-09T13:58:41;97846.94;;;22.55;47.54
50774;BME280;36745;48.544;8.918;2023-10-09T14:02:03;97840.53;;;22.43;45.24
50774;BME280;36745;48.544;8.918;2023-10-09T14:05:28;97838.75;;;22.35;45.53
50774;BME280;36745;48.544;8.918;2023-10-09T14:08:48;97830.81;;;22.28;46.98
50774;BME280;36745;48.544;8.918;2023-10-09T14:12:08;97827.97;;;22.16;46.29
50774;BME280;36745;48.544;8.918;2023-10-09T14:15:29;97832.31;;;22.17;47.22
50774;BME280;36745;48.544;8.918;2023-10-09T14:18:51;97828.47;;;22.15;47.31
50774;BME280;36745;48.544;8.918;2023-10-09T14:22:31;97821.28;;;22.08;46.90
50774;BME280;36745;48.544;8.918;2023-10-09T14:25:50;97816.94;;;22.02;46.94
50774;BME280;36745;48.544;8.918;2023-10-09T14:29:13;97817.91;;;21.93;46.79
50774;BME280;36745;48.544;8.918;2023-10-09T14:32:36;97812.34;;;21.99;48.06
50774;BME280;36745;48.544;8.918;2023-10-09T14:36:03;97800.34;;;21.98;47.97
50774;BME280;36745;48.544;8.918;2023-10-09T14:39:25;97793.44;;;21.99;47.53
50774;BME280;36745;48.544;8.918;2023-10-09T14:42:45;97792.69;;;21.99;47.63
50774;BME280;36745;48.544;8.918;2023-10-09T14:46:05;97794.19;;;21.94;48.17
50774;BME280;36745;48.544;8.918;2023-10-09T14:49:30;97796.72;;;21.92;48.17
50774;BME280;36745;48.544;8.918;2023-10-09T14:52:54;97791.09;;;21.92;48.51
50774;BME280;36745;48.544;8.918;2023-10-09T14:56:14;97793.13;;;21.92;48.25
50774;BME280;36745;48.544;8.918;2023-10-09T14:59:35;97787.78;;;21.94;48.52
50774;BME280;36745;48.544;8.918;2023-10-09T15:02:55;97796.22;;;21.94;48.48
50774;BME280;36745;48.544;8.918;2023-10-09T15:06:15;97791.41;;;21.94;48.90
50774;BME280;36745;48.544;8.918;2023-10-09T15:09:36;97798.56;;;21.95;48.47
50774;BME280;36745;48.544;8.918;2023-10-09T15:12:55;97789.34;;;21.95;49.11
50774;BME280;36745;48.544;8.918;2023-10-09T15:16:15;97792.94;;;21.95;49.02
50774;BME280;36745;48.544;8.918;2023-10-09T15:19:35;97801.06;;;21.93;48.67
50774;BME280;36745;48.544;8.918;2023-10-09T15:22:55;97794.41;;;21.85;49.17
50774;BME280;36745;48.544;8.918;2023-10-09T15:26:15;97804.38;;;21.86;49.20
50774;BME280;36745;48.544;8.918;2023-10-09T15:29:36;97807.16;;;21.86;49.19
50774;BME280;36745;48.544;8.918;2023-10-09T15:33:02;97802.06;;;21.85;49.24
50774;BME280;36745;48.544;8.918;2023-10-09T15:36:21;97797.72;;;21.84;49.49
50774;BME280;36745;48.544;8.918;2023-10-09T15:39:42;97803.81;;;21.82;49.58
50774;BME280;36745;48.544;8.918;2023-10-09T15:43:03;97795.38;;;21.76;49.83
50774;BME280;36745;48.544;8.918;2023-10-09T15:46:24;97799.19;;;21.68;49.86
50774;BME280;36745;48.544;8.918;2023-10-09T15:49:45;97792.75;;;21.56;49.94
50774;BME280;36745;48.544;8.918;2023-10-09T15:53:05;97794.50;;;21.48;50.11
50774;BME280;36745;48.544;8.918;2023-10-09T15:56:25;97788.84;;;21.37;50.20
50774;BME280;36745;48.544;8.918;2023-10-09T15:59:46;97800.47;;;21.24;50.54
50774;BME280;36745;48.544;8.918;2023-10-09T16:03:06;97792.44;;;21.12;50.84
50774;BME280;36745;48.544;8.918;2023-10-09T16:06:29;97795.91;;;20.95;50.69
50774;BME280;36745;48.544;8.918;2023-10-09T16:09:50;97799.41;;;20.85;50.83
50774;BME280;36745;48.544;8.918;2023-10-09T16:13:10;97804.66;;;20.72;50.94
50774;BME280;36745;48.544;8.918;2023-10-09T16:16:32;97815.22;;;20.57;50.75
50774;BME280;36745;48.544;8.918;2023-10-09T16:19:53;97810.50;;;20.42;51.35
50774;BME280;36745;48.544;8.918;2023-10-09T16:23:14;97809.91;;;20.33;52.49
50774;BME280;36745;48.544;8.918;2023-10-09T16:26:34;97827.81;;;20.21;52.20
50774;BME280;36745;48.544;8.918;2023-10-09T16:30:01;97817.69;;;20.03;51.82
50774;BME280;36745;48.544;8.918;2023-10-09T16:33:25;97817.44;;;19.81;52.73
50774;BME280;36745;48.544;8.918;2023-10-09T16:36:45;97824.84;;;19.63;53.15
50774;BME280;36745;48.544;8.918;2023-10-09T16:40:06;97827.44;;;19.47;53.67
50774;BME280;36745;48.544;8.918;2023-10-09T16:43:30;97818.00;;;19.29;53.65
50774;BME280;36745;48.544;8.918;2023-10-09T16:46:50;97814.97;;;19.13;54.98
50774;BME280;36745;48.544;8.918;2023-10-09T16:50:14;97810.75;;;19.03;54.81
50774;BME280;36745;48.544;8.918;2023-10-09T16:53:35;97809.25;;;18.87;55.41
50774;BME280;36745;48.544;8.918;2023-10-09T16:56:56;97811.94;;;18.81;54.63
50774;BME280;36745;48.544;8.918;2023-10-09T17:00:17;97815.13;;;18.74;54.85
50774;BME280;36745;48.544;8.918;2023-10-09T17:03:48;97819.94;;;18.59;56.67
50774;BME280;36745;48.544;8.918;2023-10-09T17:07:14;97821.94;;;18.44;56.20
50774;BME280;36745;48.544;8.918;2023-10-09T17:10:33;97817.13;;;18.30;56.23
50774;BME280;36745;48.544;8.918;2023-10-09T17:13:56;97820.78;;;18.21;56.65
50774;BME280;36745;48.544;8.918;2023-10-09T17:17:17;97821.53;;;18.07;57.02
50774;BME280;36745;48.544;8.918;2023-10-09T17:20:40;97818.31;;;17.99;57.53
50774;BME280;36745;48.544;8.918;2023-10-09T17:24:00;97819.25;;;17.82;58.90
50774;BME280;36745;48.544;8.918;2023-10-09T17:27:20;97820.69;;;17.77;59.19
50774;BME280;36745;48.544;8.918;2023-10-09T17:30:40;97826.63;;;17.70;59.93
50774;BME280;36745;48.544;8.918;2023-10-09T17:34:00;97822.81;;;17.58;59.24
50774;BME280;36745;48.544;8.918;2023-10-09T17:37:21;97826.47;;;17.41;59.32
50774;BME280;36745;48.544;8.918;2023-10-09T17:40:51;97827.19;;;17.27;59.74
50774;BME280;36745;48.544;8.918;2023-10-09T17:44:10;97840.72;;;17.10;60.20
50774;BME280;36745;48.544;8.918;2023-10-09T17:47:31;97839.09;;;16.94;61.96
50774;BME280;36745;48.544;8.918;2023-10-09T17:50:56;97837.28;;;16.82;61.21
50774;BME280;36745;48.544;8.918;2023-10-09T17:54:15;97844.13;;;16.72;63.03
50774;BME280;36745;48.544;8.918;2023-10-09T17:57:36;97845.41;;;16.62;62.86
50774;BME280;36745;48.544;8.918;2023-10-09T18:00:59;97852.19;;;16.52;63.68
50774;BME280;36745;48.544;8.918;2023-10-09T18:04:24;97857.13;;;16.48;63.71
50774;BME280;36745;48.544;8.918;2023-10-09T18:07:44;97868.88;;;16.43;63.49
50774;BME280;36745;48.544;8.918;2023-10-09T18:11:04;97872.31;;;16.28;64.43
50774;BME280;36745;48.544;8.918;2023-10-09T18:14:27;97866.47;;;16.08;64.60
50774;BME280;36745;48.544;8.918;2023-10-09T18:17:49;97868.94;;;15.97;65.50